createdAt,value
2023-03-24T00:01:07.504Z,6.97
2023-03-24T00:03:34.393Z,6.18
2023-03-24T00:06:04.514Z,5.18
2023-03-24T00:08:36.718Z,6.82
2023-03-24T00:11:06.548Z,5.63
2023-03-24T00:13:38.125Z,6.00
2023-03-24T00:16:10.816Z,5.80
2023-03-24T00:18:39.308Z,7.05
2023-03-24T00:21:07.791Z,6.40
2023-03-24T00:23:35.428Z,7.65
2023-03-24T00:26:08.886Z,7.50
2023-03-24T00:28:37.107Z,5.65
2023-03-24T00:31:05.833Z,6.18
2023-03-24T00:33:34.866Z,5.50
2023-03-24T00:36:06.965Z,6.57
2023-03-24T00:38:34.684Z,6.38
2023-03-24T00:41:02.433Z,6.00
2023-03-24T00:43:29.810Z,5.47
2023-03-24T00:46:01.912Z,5.32
2023-03-24T00:48:29.832Z,5.63
2023-03-24T00:50:57.152Z,9.02
2023-03-24T00:53:25.843Z,4.88
2023-03-24T00:55:52.477Z,5.93
2023-03-24T00:58:21.950Z,6.57
2023-03-24T01:00:54.547Z,6.13
2023-03-24T01:03:26.777Z,5.35
2023-03-24T01:06:02.350Z,5.50
2023-03-24T01:08:30.403Z,5.18
2023-03-24T01:10:57.247Z,6.38
2023-03-24T01:13:27.423Z,4.47
2023-03-24T01:15:54.922Z,4.57
2023-03-24T01:18:23.872Z,6.13
2023-03-24T01:20:51.410Z,4.45
2023-03-24T01:23:21.358Z,4.82
2023-03-24T01:25:49.123Z,5.30
2023-03-24T01:28:24.804Z,4.40
2023-03-24T01:30:54.478Z,6.53
2023-03-24T01:33:22.132Z,3.85
2023-03-24T01:35:49.246Z,4.55
2023-03-24T01:38:16.403Z,4.78
2023-03-24T01:40:46.734Z,6.63
2023-03-24T01:43:26.986Z,6.15
2023-03-24T01:46:05.268Z,4.50
2023-03-24T01:48:40.309Z,4.57
2023-03-24T01:51:15.618Z,5.75
2023-03-24T01:53:51.947Z,5.03
2023-03-24T01:56:18.983Z,4.85
2023-03-24T01:58:50.362Z,4.22
2023-03-24T02:01:17.687Z,4.97
2023-03-24T02:03:45.283Z,5.30
2023-03-24T02:06:14.684Z,4.90
2023-03-24T02:08:56.139Z,3.92
2023-03-24T02:11:25.543Z,6.47
2023-03-24T02:13:52.446Z,4.50
2023-03-24T02:16:56.408Z,4.00
2023-03-24T02:19:44.704Z,4.45
2023-03-24T02:22:26.339Z,4.38
2023-03-24T02:25:19.690Z,4.43
2023-03-24T02:28:12.716Z,3.95
2023-03-24T02:30:50.237Z,6.07
2023-03-24T02:33:54.490Z,3.90
2023-03-24T02:36:32.145Z,3.97
2023-03-24T02:39:33.378Z,4.47
2023-03-24T02:42:42.466Z,5.93
2023-03-24T02:45:18.464Z,3.90
2023-03-24T02:47:56.491Z,6.50
2023-03-24T02:51:01.922Z,5.40
2023-03-24T02:53:51.634Z,4.53
2023-03-24T02:56:37.491Z,5.30
2023-03-24T02:59:07.461Z,3.95
2023-03-24T03:01:44.656Z,4.15
2023-03-24T03:04:19.539Z,3.30
2023-03-24T03:06:53.565Z,4.90
2023-03-24T03:09:22.781Z,4.03
2023-03-24T03:11:53.320Z,5.90
2023-03-24T03:14:25.552Z,4.18
2023-03-24T03:16:59.905Z,4.65
2023-03-24T03:19:30.638Z,4.57
2023-03-24T03:21:58.602Z,4.75
2023-03-24T03:24:30.562Z,4.47
2023-03-24T03:27:01.900Z,5.10
2023-03-24T03:29:34.161Z,4.93
2023-03-24T03:32:10.237Z,3.45
2023-03-24T03:34:44.982Z,5.85
2023-03-24T03:37:47.712Z,4.90
2023-03-24T03:40:24.419Z,5.50
2023-03-24T03:42:52.088Z,4.70
2023-03-24T03:45:18.936Z,4.18
2023-03-24T03:47:46.785Z,4.20
2023-03-24T03:50:13.582Z,4.20
2023-03-24T03:52:41.562Z,3.63
2023-03-24T03:55:10.145Z,5.63
2023-03-24T03:57:36.915Z,4.70
2023-03-24T04:00:11.860Z,4.00
2023-03-24T04:03:12.394Z,4.43
2023-03-24T04:05:53.484Z,5.97
2023-03-24T04:08:33.854Z,4.50
2023-03-24T04:11:09.030Z,4.35
2023-03-24T04:13:35.820Z,4.30
2023-03-24T04:16:18.151Z,4.28
2023-03-24T04:19:11.350Z,6.10
2023-03-24T04:22:07.240Z,4.20
2023-03-24T04:24:57.891Z,5.47
2023-03-24T04:27:40.077Z,5.28
2023-03-24T04:30:16.831Z,3.83
2023-03-24T04:32:58.268Z,4.88
2023-03-24T04:35:33.931Z,4.60
2023-03-24T04:38:08.661Z,4.25
2023-03-24T04:40:41.930Z,4.60
2023-03-24T04:43:13.856Z,4.25
2023-03-24T04:45:41.703Z,3.92
2023-03-24T04:48:11.526Z,4.47
2023-03-24T04:50:39.678Z,6.05
2023-03-24T04:53:08.209Z,6.25
2023-03-24T04:55:43.625Z,4.15
2023-03-24T04:58:10.479Z,3.70
2023-03-24T05:00:37.433Z,3.85
2023-03-24T05:03:04.438Z,3.53
2023-03-24T05:05:31.119Z,2.45
2023-03-24T05:07:57.972Z,3.47
2023-03-24T05:10:24.799Z,3.20
2023-03-24T05:12:51.444Z,3.00
2023-03-24T05:15:18.184Z,4.70
2023-03-24T05:17:44.870Z,3.45
2023-03-24T05:20:11.939Z,3.55
2023-03-24T05:22:39.188Z,3.72
2023-03-24T05:25:06.849Z,3.15
2023-03-24T05:27:33.509Z,3.25
2023-03-24T05:30:00.309Z,3.22
2023-03-24T05:32:27.277Z,4.47
2023-03-24T05:34:54.021Z,4.15
2023-03-24T05:37:20.900Z,4.32
2023-03-24T05:39:47.712Z,3.95
2023-03-24T05:42:15.595Z,2.78
2023-03-24T05:44:42.341Z,2.78
2023-03-24T05:47:09.410Z,3.22
2023-03-24T05:49:36.676Z,3.58
2023-03-24T05:52:03.473Z,2.88
2023-03-24T05:54:30.148Z,3.17
2023-03-24T05:56:56.868Z,4.30
2023-03-24T05:59:23.528Z,3.50
2023-03-24T06:01:50.205Z,3.28
2023-03-24T06:04:16.839Z,5.47
2023-03-24T06:06:45.487Z,5.38
2023-03-24T06:09:14.521Z,4.20
2023-03-24T06:11:41.143Z,2.65
2023-03-24T06:14:08.823Z,3.28
2023-03-24T06:16:41.344Z,3.72
2023-03-24T06:19:08.065Z,4.25
2023-03-24T06:21:35.380Z,4.20
2023-03-24T06:24:03.149Z,3.00
2023-03-24T06:26:32.597Z,3.67
2023-03-24T06:28:59.728Z,4.82
2023-03-24T06:31:29.553Z,5.38
2023-03-24T06:33:56.258Z,3.88
2023-03-24T06:36:23.532Z,4.18
2023-03-24T06:38:51.038Z,3.95
2023-03-24T06:41:17.802Z,4.55
2023-03-24T06:43:44.409Z,6.30
2023-03-24T06:46:11.313Z,3.63
2023-03-24T06:48:39.519Z,4.38
2023-03-24T06:51:06.943Z,4.78
2023-03-24T06:53:33.801Z,4.65
2023-03-24T06:56:00.428Z,4.43
2023-03-24T06:58:27.985Z,3.28
2023-03-24T07:00:55.209Z,5.65
2023-03-24T07:03:23.477Z,4.53
2023-03-24T07:05:50.233Z,4.72
2023-03-24T07:08:34.523Z,4.47
2023-03-24T07:11:04.374Z,5.28
2023-03-24T07:13:31.045Z,5.10
2023-03-24T07:15:57.680Z,5.00
2023-03-24T07:18:24.791Z,5.10
2023-03-24T07:20:51.587Z,3.33
2023-03-24T07:23:18.302Z,5.05
2023-03-24T07:25:45.814Z,3.75
2023-03-24T07:28:12.877Z,4.18
2023-03-24T07:30:40.991Z,4.07
2023-03-24T07:33:10.786Z,4.53
2023-03-24T07:35:37.594Z,4.30
2023-03-24T07:38:04.390Z,3.28
2023-03-24T07:40:31.715Z,3.88
2023-03-24T07:43:02.690Z,3.13
2023-03-24T07:45:29.472Z,3.92
2023-03-24T07:48:01.712Z,4.15
2023-03-24T07:50:29.362Z,3.40
2023-03-24T07:52:58.626Z,5.30
2023-03-24T07:55:27.070Z,3.97
2023-03-24T07:57:53.724Z,5.03
2023-03-24T08:00:21.464Z,3.88
2023-03-24T08:02:51.973Z,3.45
2023-03-24T08:05:20.805Z,3.47
2023-03-24T08:07:53.312Z,4.93
2023-03-24T08:10:26.118Z,4.00
2023-03-24T08:12:53.221Z,3.88
2023-03-24T08:15:20.444Z,4.97
2023-03-24T08:17:49.381Z,4.97
2023-03-24T08:20:16.855Z,3.70
2023-03-24T08:22:45.736Z,4.20
2023-03-24T08:25:13.177Z,4.60
2023-03-24T08:27:43.347Z,3.80
2023-03-24T08:30:11.164Z,3.53
2023-03-24T08:32:37.917Z,3.90
2023-03-24T08:35:05.190Z,3.90
2023-03-24T08:37:31.893Z,3.20
2023-03-24T08:39:58.921Z,3.10
2023-03-24T08:42:26.104Z,3.90
2023-03-24T08:44:53.084Z,3.63
2023-03-24T08:47:19.705Z,3.05
2023-03-24T08:49:46.348Z,4.32
2023-03-24T08:52:12.990Z,3.30
2023-03-24T08:54:39.746Z,5.03
2023-03-24T08:57:06.681Z,4.05
2023-03-24T08:59:33.347Z,3.75
2023-03-24T09:02:00.115Z,3.17
2023-03-24T09:04:27.291Z,4.22
2023-03-24T09:07:01.690Z,3.53
2023-03-24T09:09:30.806Z,3.05
2023-03-24T09:11:57.431Z,3.25
2023-03-24T09:14:24.203Z,2.90
2023-03-24T09:16:51.394Z,4.05
2023-03-24T09:19:18.312Z,3.20
2023-03-24T09:21:48.757Z,2.92
2023-03-24T09:24:15.920Z,2.72
2023-03-24T09:26:42.552Z,3.53
2023-03-24T09:29:09.178Z,3.30
2023-03-24T09:31:35.864Z,2.42
2023-03-24T09:34:04.244Z,2.30
2023-03-24T09:36:31.284Z,3.03
2023-03-24T09:38:58.183Z,3.85
2023-03-24T09:41:31.871Z,2.70
2023-03-24T09:44:21.606Z,3.45
2023-03-24T09:46:56.890Z,3.35
2023-03-24T09:49:28.172Z,3.92
2023-03-24T09:52:05.219Z,2.50
2023-03-24T09:54:41.269Z,3.00
2023-03-24T09:57:20.651Z,3.15
2023-03-24T09:59:47.425Z,2.10
2023-03-24T10:02:16.867Z,3.08
2023-03-24T10:04:43.451Z,3.33
2023-03-24T10:08:02.677Z,3.20
2023-03-24T10:10:49.214Z,2.55
2023-03-24T10:13:25.566Z,3.50
2023-03-24T10:16:15.465Z,2.03
2023-03-24T10:19:31.793Z,2.42
2023-03-24T10:22:33.041Z,2.42
2023-03-24T10:25:08.721Z,2.15
2023-03-24T10:27:41.750Z,1.88
2023-03-24T10:30:22.464Z,3.17
2023-03-24T10:32:49.262Z,2.60
2023-03-24T10:35:26.938Z,3.47
2023-03-24T10:37:57.197Z,2.40
2023-03-24T10:40:33.348Z,2.17
2023-03-24T10:43:07.343Z,1.63
2023-03-24T10:45:39.635Z,2.00
2023-03-24T10:48:07.446Z,1.63
2023-03-24T10:50:36.052Z,1.90
2023-03-24T10:53:10.023Z,2.33
2023-03-24T10:55:39.166Z,3.03
2023-03-24T10:58:19.647Z,3.45
2023-03-24T11:00:47.770Z,2.13
2023-03-24T11:03:36.712Z,2.10
2023-03-24T11:06:05.080Z,2.22
2023-03-24T11:08:36.845Z,2.42
2023-03-24T11:11:15.459Z,2.90
2023-03-24T11:13:42.853Z,2.30
2023-03-24T11:16:17.066Z,3.72
2023-03-24T11:19:04.379Z,1.83
2023-03-24T11:21:34.858Z,2.72
2023-03-24T11:24:04.217Z,3.90
2023-03-24T11:26:39.164Z,4.68
2023-03-24T11:29:21.936Z,2.53
2023-03-24T11:31:54.864Z,1.92
2023-03-24T11:34:42.144Z,2.72
2023-03-24T11:37:14.330Z,1.73
2023-03-24T11:39:40.993Z,3.00
2023-03-24T11:42:10.541Z,2.38
2023-03-24T11:44:50.671Z,3.22
2023-03-24T11:47:27.387Z,2.35
2023-03-24T11:50:12.257Z,2.72
2023-03-24T11:52:43.863Z,2.53
2023-03-24T11:55:35.719Z,2.92
2023-03-24T11:58:33.365Z,3.38
2023-03-24T12:01:26.518Z,2.50
2023-03-24T12:03:58.755Z,2.80
2023-03-24T12:07:02.747Z,2.77
2023-03-24T12:12:21.767Z,1.30
2023-03-24T12:14:51.120Z,1.65
2023-03-24T12:17:23.852Z,2.35
2023-03-24T12:20:01.972Z,1.40
2023-03-24T12:22:59.606Z,1.77
2023-03-24T12:26:08.489Z,1.73
2023-03-24T12:29:01.484Z,1.90
2023-03-24T12:31:55.487Z,2.67
2023-03-24T12:34:46.033Z,1.83
2023-03-24T12:37:47.359Z,3.10
2023-03-24T12:40:46.617Z,1.38
2023-03-24T12:43:39.983Z,1.85
2023-03-24T12:46:16.288Z,2.00
2023-03-24T12:48:51.894Z,3.38
2023-03-24T12:51:33.609Z,2.20
2023-03-24T12:54:36.691Z,1.52
2023-03-24T12:57:13.654Z,2.90
2023-03-24T12:59:57.729Z,2.03
2023-03-24T13:02:31.691Z,2.53
2023-03-24T13:05:05.496Z,2.00
2023-03-24T13:07:43.915Z,2.35
2023-03-24T13:10:22.869Z,2.20
2023-03-24T13:13:02.516Z,1.83
2023-03-24T13:15:34.473Z,2.15
2023-03-24T13:18:09.825Z,2.95
2023-03-24T13:20:44.254Z,2.58
2023-03-24T13:23:34.336Z,3.17
2023-03-24T13:26:09.683Z,3.78
2023-03-24T13:28:48.327Z,2.10
2023-03-24T13:31:17.580Z,1.63
2023-03-24T13:33:45.277Z,1.73
2023-03-24T13:36:42.920Z,1.98
2023-03-24T13:39:16.528Z,2.22
2023-03-24T13:41:50.409Z,2.13
2023-03-24T13:44:24.049Z,2.97
2023-03-24T13:47:20.214Z,2.00
2023-03-24T13:50:07.309Z,2.75
2023-03-24T13:52:44.949Z,1.80
2023-03-24T13:55:36.876Z,2.35
2023-03-24T13:58:12.986Z,1.67
2023-03-24T14:01:10.899Z,2.53
2023-03-24T14:03:43.246Z,1.77
2023-03-24T14:06:38.780Z,1.57
2023-03-24T14:09:14.585Z,1.58
2023-03-24T14:11:45.437Z,1.63
2023-03-24T14:14:15.386Z,1.90
2023-03-24T14:16:43.715Z,2.65
2023-03-24T14:19:26.281Z,2.70
2023-03-24T14:22:44.012Z,1.33
2023-03-24T14:25:16.945Z,3.28
2023-03-24T14:27:47.289Z,1.45
2023-03-24T14:30:22.534Z,2.63
2023-03-24T14:32:52.719Z,3.38
2023-03-24T14:35:29.858Z,4.60
2023-03-24T14:38:16.068Z,3.67
2023-03-24T14:40:49.524Z,4.07
2023-03-24T14:43:18.083Z,4.05
2023-03-24T14:46:03.624Z,3.15
2023-03-24T14:48:40.299Z,1.55
2023-03-24T14:51:27.034Z,2.15
2023-03-24T14:53:58.032Z,2.45
2023-03-24T14:56:33.058Z,1.88
2023-03-24T14:59:04.916Z,3.00
2023-03-24T15:01:34.279Z,2.25
2023-03-24T15:04:05.067Z,3.88
2023-03-24T15:06:33.190Z,4.20
2023-03-24T15:09:07.488Z,3.13
2023-03-24T15:11:36.856Z,3.88
2023-03-24T15:14:13.884Z,3.38
2023-03-24T15:16:40.727Z,3.08
2023-03-24T15:19:17.609Z,5.93
2023-03-24T15:21:59.606Z,3.58
2023-03-24T15:24:35.407Z,4.53
2023-03-24T15:27:07.921Z,2.92
2023-03-24T15:29:36.454Z,3.60
2023-03-24T15:32:04.308Z,6.03
2023-03-24T15:34:35.991Z,4.75
2023-03-24T15:37:07.766Z,3.15
2023-03-24T15:39:37.003Z,3.72
2023-03-24T15:42:16.552Z,4.40
2023-03-24T15:44:43.548Z,2.85
2023-03-24T15:47:22.044Z,4.20
2023-03-24T15:50:05.541Z,5.95
2023-03-24T15:52:35.074Z,5.20
2023-03-24T15:55:30.333Z,4.47
2023-03-24T15:57:59.845Z,3.10
2023-03-24T16:00:37.254Z,5.55
2023-03-24T16:03:06.792Z,4.60
2023-03-24T16:05:34.658Z,5.03
2023-03-24T16:08:04.283Z,5.00
2023-03-24T16:10:42.604Z,5.55
2023-03-24T16:13:21.375Z,5.03
2023-03-24T16:16:07.817Z,3.97
2023-03-24T16:18:36.749Z,5.25
2023-03-24T16:21:15.830Z,4.68
2023-03-24T16:23:43.543Z,4.63
2023-03-24T16:26:20.717Z,3.90
2023-03-24T16:28:48.245Z,3.85
2023-03-24T16:31:25.065Z,5.88
2023-03-24T16:33:53.032Z,6.90
2023-03-24T16:36:21.973Z,3.35
2023-03-24T16:38:49.750Z,4.50
2023-03-24T16:41:16.463Z,5.68
2023-03-24T16:43:43.644Z,3.90
2023-03-24T16:46:21.213Z,5.47
2023-03-24T16:48:48.279Z,4.13
2023-03-24T16:51:16.520Z,3.03
2023-03-24T16:53:44.773Z,4.93
2023-03-24T16:56:14.494Z,4.22
2023-03-24T16:58:41.295Z,9.27
2023-03-24T17:01:33.360Z,4.22
2023-03-24T17:04:05.133Z,4.47
2023-03-24T17:06:32.924Z,5.85
2023-03-24T17:08:59.831Z,4.57
2023-03-24T17:11:33.413Z,3.90
2023-03-24T17:14:04.675Z,6.90
2023-03-24T17:16:36.334Z,3.83
2023-03-24T17:19:06.721Z,7.82
2023-03-24T17:21:56.678Z,6.20
2023-03-24T17:24:24.129Z,3.38
2023-03-24T17:26:51.107Z,4.22
2023-03-24T17:29:17.743Z,5.22
2023-03-24T17:31:44.508Z,5.25
2023-03-24T17:34:21.622Z,4.63
2023-03-24T17:36:50.694Z,7.35
2023-03-24T17:39:18.851Z,4.13
2023-03-24T17:41:45.689Z,5.25
2023-03-24T17:44:12.589Z,4.35
2023-03-24T17:46:39.272Z,4.30
2023-03-24T17:49:06.321Z,5.43
2023-03-24T17:51:33.443Z,3.25
2023-03-24T17:54:00.647Z,3.78
2023-03-24T17:56:27.307Z,6.07
2023-03-24T17:58:54.828Z,5.38
2023-03-24T18:01:21.846Z,4.32
2023-03-24T18:03:49.704Z,4.82
2023-03-24T18:06:17.202Z,5.30
2023-03-24T18:08:44.241Z,4.65
2023-03-24T18:11:14.341Z,4.45
2023-03-24T18:13:42.094Z,5.43
2023-03-24T18:16:20.648Z,4.43
2023-03-24T18:18:49.252Z,4.97
2023-03-24T18:21:16.032Z,4.63
2023-03-24T18:23:42.795Z,4.60
2023-03-24T18:26:09.610Z,5.53
2023-03-24T18:28:38.556Z,6.20
2023-03-24T18:31:13.260Z,8.32
2023-03-24T18:33:42.735Z,8.68
2023-03-24T18:36:10.265Z,9.98
2023-03-24T18:38:36.998Z,10.15
2023-03-24T18:41:06.577Z,8.98
2023-03-24T18:43:37.451Z,6.75
2023-03-24T18:46:05.704Z,8.05
2023-03-24T18:48:32.559Z,5.25
2023-03-24T18:50:59.168Z,7.72
2023-03-24T18:53:25.937Z,7.07
2023-03-24T18:55:52.652Z,6.05
2023-03-24T18:58:19.553Z,6.35
2023-03-24T19:00:51.897Z,7.43
2023-03-24T19:03:20.001Z,7.10
2023-03-24T19:05:46.873Z,6.10
2023-03-24T19:08:15.010Z,7.40
2023-03-24T19:10:43.314Z,6.28
2023-03-24T19:13:12.182Z,6.97
2023-03-24T19:15:39.490Z,5.15
2023-03-24T19:18:06.839Z,6.47
2023-03-24T19:20:35.056Z,10.05
2023-03-24T19:23:02.432Z,6.28
2023-03-24T19:25:29.143Z,7.32
2023-03-24T19:27:55.966Z,6.70
2023-03-24T19:30:22.646Z,4.63
2023-03-24T19:32:49.460Z,4.60
2023-03-24T19:35:16.664Z,5.68
2023-03-24T19:37:43.438Z,6.25
2023-03-24T19:40:15.539Z,4.28
2023-03-24T19:42:44.855Z,3.08
2023-03-24T19:45:13.783Z,5.32
2023-03-24T19:47:40.523Z,7.40
2023-03-24T19:50:08.443Z,6.78
2023-03-24T19:52:35.806Z,8.30
2023-03-24T19:55:03.498Z,7.03
2023-03-24T19:57:31.703Z,7.72
2023-03-24T19:59:59.106Z,6.35
2023-03-24T20:02:25.961Z,6.90
2023-03-24T20:04:55.154Z,5.15
2023-03-24T20:07:22.964Z,6.95
2023-03-24T20:09:49.687Z,6.90
2023-03-24T20:12:16.367Z,3.88
2023-03-24T20:14:43.326Z,4.85
2023-03-24T20:17:17.766Z,5.55
2023-03-24T20:19:45.348Z,10.63
2023-03-24T20:22:12.344Z,7.38
2023-03-24T20:24:39.221Z,9.30
2023-03-24T20:27:07.214Z,7.50
2023-03-24T20:29:34.204Z,10.10
2023-03-24T20:32:00.990Z,8.40
2023-03-24T20:34:27.809Z,7.03
2023-03-24T20:36:54.420Z,8.73
2023-03-24T20:39:21.083Z,6.28
2023-03-24T20:41:47.696Z,5.28
2023-03-24T20:44:14.351Z,6.15
2023-03-24T20:46:40.967Z,5.78
2023-03-24T20:49:09.549Z,6.15
2023-03-24T20:51:36.718Z,6.75
2023-03-24T20:54:05.618Z,5.05
2023-03-24T20:56:32.249Z,4.88
2023-03-24T20:58:58.856Z,5.43
2023-03-24T21:01:25.610Z,5.38
2023-03-24T21:03:53.221Z,4.75
2023-03-24T21:06:20.710Z,5.60
2023-03-24T21:08:48.241Z,4.25
2023-03-24T21:11:14.839Z,3.95
2023-03-24T21:13:41.605Z,3.47
2023-03-24T21:16:09.820Z,2.05
2023-03-24T21:18:37.562Z,2.88
2023-03-24T21:21:05.419Z,3.25
2023-03-24T21:23:34.154Z,2.45
2023-03-24T21:26:01.880Z,3.50
2023-03-24T21:28:30.837Z,3.83
2023-03-24T21:30:58.587Z,2.15
2023-03-24T21:33:25.472Z,2.97
2023-03-24T21:35:55.356Z,3.08
2023-03-24T21:38:22.140Z,3.28
2023-03-24T21:40:58.101Z,3.97
2023-03-24T21:43:27.092Z,4.22
2023-03-24T21:45:54.428Z,3.53
2023-03-24T21:48:22.087Z,5.22
2023-03-24T21:50:55.159Z,5.07
2023-03-24T21:53:22.828Z,5.03
2023-03-24T21:56:04.970Z,3.60
2023-03-24T21:58:32.811Z,4.03
2023-03-24T22:01:00.369Z,4.35
2023-03-24T22:03:27.786Z,3.80
2023-03-24T22:05:57.180Z,4.63
2023-03-24T22:08:26.467Z,3.63
2023-03-24T22:11:00.975Z,3.67
2023-03-24T22:13:28.843Z,2.80
2023-03-24T22:15:57.101Z,1.88
2023-03-24T22:18:24.762Z,1.80
2023-03-24T22:21:04.111Z,1.67
2023-03-24T22:23:36.911Z,2.13
2023-03-24T22:26:09.588Z,1.30
2023-03-24T22:28:37.100Z,2.92
2023-03-24T22:31:06.373Z,3.67
2023-03-24T22:33:33.143Z,1.50
2023-03-24T22:36:00.869Z,2.88
2023-03-24T22:38:28.347Z,2.50
2023-03-24T22:41:03.729Z,2.60
2023-03-24T22:43:30.639Z,2.88
2023-03-24T22:45:57.400Z,1.75
2023-03-24T22:48:24.519Z,3.05
2023-03-24T22:50:52.141Z,3.38
2023-03-24T22:53:18.735Z,3.05
2023-03-24T22:55:45.364Z,3.00
2023-03-24T22:58:13.340Z,3.50
2023-03-24T23:00:41.376Z,4.20
2023-03-24T23:03:08.653Z,3.55
2023-03-24T23:05:40.054Z,2.70
2023-03-24T23:08:07.531Z,3.22
2023-03-24T23:10:34.206Z,2.47
2023-03-24T23:13:00.840Z,3.03
2023-03-24T23:15:27.445Z,3.75
2023-03-24T23:17:54.127Z,3.63
2023-03-24T23:20:20.968Z,3.72
2023-03-24T23:22:47.924Z,3.42
2023-03-24T23:25:15.570Z,2.35
2023-03-24T23:27:42.247Z,2.50
2023-03-24T23:30:11.033Z,2.80
2023-03-24T23:32:39.004Z,2.80
2023-03-24T23:35:06.958Z,1.35
2023-03-24T23:37:34.666Z,2.17
2023-03-24T23:40:09.442Z,4.10
2023-03-24T23:42:41.058Z,1.98
2023-03-24T23:45:09.536Z,4.40
2023-03-24T23:47:36.745Z,2.53
2023-03-24T23:50:06.191Z,2.75
2023-03-24T23:52:33.627Z,4.13
2023-03-24T23:55:02.020Z,4.18
2023-03-24T23:57:29.322Z,3.45
2023-03-24T23:59:55.927Z,4.75
